Time;durP1;ratioP1;P1;durP2;ratioP2;P2;SDS_P1;SDS_P2;PMS_P1;PMS_P2;Temp;Humidity;BMP_temperature;BMP_pressure;BME280_temperature;BME280_humidity;BME280_pressure;Samples;Min_cycle;Max_cycle;Signal;HPM_P1;HPM_P2
2022/10/25 00:00:05;;;;;;;24.50;1.80;;;;;;;12.80;91.70;100518.13;6337031;22;20315;-76
2022/10/25 00:03:15;;;;;;;15.38;1.55;;;;;;;12.60;91.90;100523.72;6336827;22;20342;-75
2022/10/25 00:06:18;;;;;;;15.60;3.97;;;;;;;12.68;91.84;100526.72;6336032;22;20511;-75
2022/10/25 00:09:22;;;;;;;17.88;1.73;;;;;;;12.56;92.76;100519.59;6336312;22;20358;-75
2022/10/25 00:12:25;;;;;;;17.90;1.80;;;;;;;12.52;93.24;100523.34;6336954;22;20342;-75
2022/10/25 00:15:29;;;;;;;10.35;1.50;;;;;;;12.55;92.85;100517.94;6336396;22;20079;-76
2022/10/25 00:18:32;;;;;;;;;;;;;;;12.62;92.66;100519.22;6336944;22;20391;-75
2022/10/25 00:21:36;;;;;;;15.93;1.25;;;;;;;12.58;92.61;100520.38;6337132;22;19952;-75
2022/10/25 00:24:39;;;;;;;11.88;1.48;;;;;;;12.52;93.05;100512.88;6337248;22;20095;-75
2022/10/25 00:27:43;;;;;;;14.75;1.88;;;;;;;12.60;92.37;100526.34;6335901;22;20465;-75
2022/10/25 00:30:46;;;;;;;15.73;1.73;;;;;;;12.48;92.63;100527.09;6336925;22;20358;-75
2022/10/25 00:33:50;;;;;;;28.25;2.78;;;;;;;12.50;92.28;100526.06;6336038;22;20485;-76
2022/10/25 00:36:54;;;;;;;19.17;2.03;;;;;;;12.41;91.91;100531.00;6337124;22;20018;-75
2022/10/25 00:39:58;;;;;;;19.25;2.28;;;;;;;12.32;92.51;100528.00;6337097;22;20123;-75
2022/10/25 00:43:01;;;;;;;10.48;1.05;;;;;;;12.41;92.00;100523.13;6336816;22;20076;-75
2022/10/25 00:46:11;;;;;;;14.68;1.77;;;;;;;12.47;91.30;100528.03;6336559;22;20064;-75
2022/10/25 00:49:20;;;;;;;13.55;1.40;;;;;;;12.36;91.51;100527.84;6337137;22;20022;-76
2022/10/25 00:52:26;;;;;;;17.73;1.83;;;;;;;12.13;92.95;100526.56;6337128;22;20345;-75
2022/10/25 00:55:29;;;;;;;18.92;1.85;;;;;;;12.13;94.32;100523.97;6337130;22;20026;-75
2022/10/25 00:58:36;;;;;;;15.48;1.70;;;;;;;12.27;93.11;100537.91;6338820;22;20121;-75
2022/10/25 01:01:40;;;;;;;14.93;2.13;;;;;;;12.30;92.50;100535.13;6338401;22;20023;-75
2022/10/25 01:04:43;;;;;;;16.58;1.42;;;;;;;12.27;94.51;100534.47;6338825;22;20123;-75
2022/10/25 01:07:47;;;;;;;13.32;1.25;;;;;;;12.27;94.09;100540.53;6338705;22;20042;-75
2022/10/25 01:10:50;;;;;;;10.98;1.98;;;;;;;12.15;94.96;100551.75;6338320;22;20045;-75
2022/10/25 01:13:54;;;;;;;;;;;;;;;12.19;95.01;100540.16;6338599;22;20022;-75
2022/10/25 01:17:07;;;;;;;11.80;1.55;;;;;;;12.34;94.10;100552.34;6339222;22;19913;-75
2022/10/25 01:20:21;;;;;;;11.20;1.67;;;;;;;12.36;93.15;100546.19;6338765;22;20026;-76
2022/10/25 01:23:24;;;;;;;12.30;1.15;;;;;;;12.27;92.74;100540.53;6338718;22;20064;-75
2022/10/25 01:26:38;;;;;;;14.73;1.70;;;;;;;12.34;92.37;100547.09;6337328;22;20207;-75
2022/10/25 01:30:00;;;;;;;8.88;0.95;;;;;;;12.42;92.25;100549.28;6338017;22;20042;-75
2022/10/25 01:33:34;;;;;;;12.57;1.73;;;;;;;12.44;91.74;100547.41;6338604;22;20021;-75
2022/10/25 01:36:43;;;;;;;14.75;1.30;;;;;;;12.36;91.98;100548.81;6338469;22;20033;-76
2022/10/25 01:40:08;;;;;;;20.20;2.53;;;;;;;12.23;92.26;100541.66;6338297;22;20075;-75
2022/10/25 01:43:21;;;;;;;14.95;1.40;;;;;;;12.26;92.00;100551.97;6338292;22;20036;-75
2022/10/25 01:46:57;;;;;;;10.23;1.75;;;;;;;12.36;91.80;100551.44;6337311;22;20071;-75
2022/10/25 01:50:06;;;;;;;13.35;1.65;;;;;;;12.27;91.96;100548.41;6337342;22;20072;-75
2022/10/25 01:53:11;;;;;;;14.93;1.45;;;;;;;12.12;92.25;100554.53;6338438;22;20463;-75
2022/10/25 01:56:23;;;;;;;15.25;1.27;;;;;;;12.23;92.21;100554.78;6338272;22;20095;-75
2022/10/25 01:59:50;;;;;;;16.42;1.85;;;;;;;12.04;93.02;100548.91;6337938;22;20048;-75
2022/10/25 02:03:12;;;;;;;21.13;1.48;;;;;;;12.15;92.38;100561.38;6338187;22;20460;-75
2022/10/25 02:06:45;;;;;;;10.75;1.30;;;;;;;12.08;92.40;100566.97;6338280;22;20025;-75
2022/10/25 02:10:10;;;;;;;18.02;1.23;;;;;;;12.03;92.31;100562.97;6337287;22;20030;-75
2022/10/25 02:13:43;;;;;;;14.85;1.63;;;;;;;11.97;92.45;100552.84;6337944;22;20026;-75
2022/10/25 02:16:56;;;;;;;13.03;1.57;;;;;;;12.10;92.11;100553.81;6337916;22;20103;-75
2022/10/25 02:20:01;;;;;;;10.63;1.23;;;;;;;12.05;91.48;100567.16;6337863;22;20033;-75
2022/10/25 02:23:05;;;;;;;22.10;1.75;;;;;;;12.07;91.86;100559.22;6338072;22;20053;-75
2022/10/25 02:26:10;;;;;;;23.00;1.60;;;;;;;11.84;92.98;100569.25;6338022;22;20098;-75
2022/10/25 02:29:15;;;;;;;13.30;1.98;;;;;;;12.01;92.68;100568.28;6338120;22;20072;-75
2022/10/25 02:32:18;;;;;;;15.30;1.90;;;;;;;12.04;92.48;100551.53;6337246;22;20022;-75
2022/10/25 02:35:22;;;;;;;24.00;1.92;;;;;;;11.87;93.37;100552.53;6338130;22;20033;-75
2022/10/25 02:38:25;;;;;;;15.55;1.70;;;;;;;11.89;93.14;100558.50;6337842;22;20096;-75
2022/10/25 02:41:29;;;;;;;12.80;2.13;;;;;;;11.98;93.20;100565.84;6337863;22;20026;-75
2022/10/25 02:44:33;;;;;;;16.20;1.40;;;;;;;12.03;93.90;100569.03;6337970;22;20057;-75
2022/10/25 02:47:36;;;;;;;23.08;3.53;;;;;;;12.08;93.70;100574.00;6338084;22;20106;-75
2022/10/25 02:50:40;;;;;;;11.30;1.55;;;;;;;12.14;93.84;100576.28;6337840;22;20025;-75
2022/10/25 02:53:43;;;;;;;9.23;1.25;;;;;;;12.25;93.81;100573.88;6337063;22;20022;-75
2022/10/25 02:56:51;;;;;;;11.25;1.50;;;;;;;12.56;92.27;100577.31;6337663;22;20055;-75
2022/10/25 02:59:54;;;;;;;15.68;1.48;;;;;;;12.59;91.49;100579.75;6337633;22;20388;-75
2022/10/25 03:02:57;;;;;;;12.30;1.63;;;;;;;12.71;90.73;100571.16;6337160;22;20111;-75
2022/10/25 03:06:01;;;;;;;15.77;1.88;;;;;;;12.72;91.46;100570.19;6337660;22;20029;-75
2022/10/25 03:09:05;;;;;;;12.13;1.27;;;;;;;12.59;92.33;100577.13;6337464;22;20466;-75
2022/10/25 03:12:08;;;;;;;15.95;1.77;;;;;;;12.50;92.66;100582.91;6337892;22;20075;-75
2022/10/25 03:15:12;;;;;;;14.68;1.17;;;;;;;12.52;92.53;100575.81;6337542;22;20021;-75
2022/10/25 03:18:16;;;;;;;8.27;1.40;;;;;;;12.52;91.65;100581.06;6337986;22;20026;-75
2022/10/25 03:21:19;;;;;;;10.13;1.73;;;;;;;12.70;91.27;100574.72;6337558;22;20082;-75
2022/10/25 03:24:22;;;;;;;14.88;1.33;;;;;;;12.70;91.47;100574.72;6337310;22;20053;-75
2022/10/25 03:27:25;;;;;;;10.18;1.25;;;;;;;12.77;91.07;100578.66;6337582;22;20097;-76
2022/10/25 03:30:30;;;;;;;10.52;1.42;;;;;;;12.79;90.54;100573.28;6337540;22;20464;-75
2022/10/25 03:33:33;;;;;;;7.32;1.30;;;;;;;12.93;89.95;100581.19;6336472;22;20389;-75
2022/10/25 03:36:36;;;;;;;9.25;1.20;;;;;;;13.02;88.94;100572.75;6336883;22;20030;-76
2022/10/25 03:39:40;;;;;;;10.75;1.38;;;;;;;12.97;89.54;100580.06;6337176;22;20048;-75
2022/10/25 03:42:43;;;;;;;11.93;1.35;;;;;;;12.94;89.49;100588.09;6337252;22;20083;-75
2022/10/25 03:45:46;;;;;;;16.73;2.15;;;;;;;12.92;89.92;100589.13;6337206;22;20029;-75
2022/10/25 03:48:50;;;;;;;6.45;1.40;;;;;;;12.95;89.67;100591.56;6337233;22;20022;-76
2022/10/25 03:51:53;;;;;;;16.05;1.05;;;;;;;12.96;89.92;100590.66;6337292;22;20499;-75
2022/10/25 03:54:57;;;;;;;16.38;1.65;;;;;;;12.72;90.66;100592.97;6337176;22;20029;-76
2022/10/25 03:58:00;;;;;;;10.63;1.42;;;;;;;12.75;90.88;100598.88;6337160;22;20151;-76
2022/10/25 04:01:07;;;;;;;10.63;1.23;;;;;;;12.67;91.04;100606.38;6337399;22;20025;-75
2022/10/25 04:04:12;;;;;;;9.32;1.30;;;;;;;12.63;91.22;100604.00;6305627;22;20029;-76
2022/10/25 04:07:15;;;;;;;;;;;;;;;12.63;91.31;100602.22;6306231;22;20429;-75
2022/10/25 04:10:18;;;;;;;;;;;;;;;12.80;90.04;100599.44;6306159;22;19933;-76
2022/10/25 04:13:23;;;;;;;;;;;;;;;13.01;88.74;100606.94;6306529;22;19913;-75
2022/10/25 04:16:26;;;;;;;;;;;;;;;13.17;87.12;100599.81;6306424;22;19956;-75
2022/10/25 04:19:30;;;;;;;;;;;;;;;13.23;86.98;100604.69;6306005;22;19969;-75
2022/10/25 04:22:34;;;;;;;;;;;;;;;13.23;86.63;100599.44;6305123;22;19993;-76
2022/10/25 04:25:37;;;;;;;;;;;;;;;13.38;85.94;100602.09;6306395;22;19960;-75
2022/10/25 04:28:40;;;;;;;;;;;;;;;13.41;86.33;100601.91;6306251;22;20005;-76
2022/10/25 04:31:44;;;;;;;;;;;;;;;13.41;86.01;100594.03;6307273;22;20011;-75
2022/10/25 04:34:47;;;;;;;;;;;;;;;13.44;85.49;100596.47;6308192;22;19921;-75
2022/10/25 04:37:51;;;;;;;;;;;;;;;13.49;85.22;100589.09;6307727;22;19929;-75
2022/10/25 04:40:56;;;;;;;;;;;;;;;13.40;85.10;100601.06;6308115;22;19913;-75
2022/10/25 04:43:59;;;;;;;;;;;;;;;13.43;85.55;100590.38;6307790;22;19930;-75
2022/10/25 04:47:02;;;;;;;;;;;;;;;13.37;86.78;100590.75;6308319;22;19937;-75
2022/10/25 04:50:06;;;;;;;;;;;;;;;13.25;87.08;100594.97;6307375;22;19913;-76
2022/10/25 04:53:10;;;;;;;;;;;;;;;13.24;87.19;100606.44;6307754;22;19914;-75
2022/10/25 04:56:13;;;;;;;;;;;;;;;13.18;88.09;100605.94;6308322;22;19914;-75
2022/10/25 04:59:16;;;;;;;;;;;;;;;13.16;87.89;100594.66;6308260;22;20030;-76
2022/10/25 05:02:20;;;;;;;;;;;;;;;13.06;88.64;100596.19;6307863;22;19920;-75
2022/10/25 05:05:24;;;;;;;;;;;;;;;12.95;89.04;100599.44;6308037;22;19964;-75
2022/10/25 05:08:27;;;;;;;;;;;;;;;12.90;89.31;100596.28;6307599;22;19918;-76
2022/10/25 05:11:31;;;;;;;;;;;;;;;12.66;90.50;100607.28;6307704;22;20337;-75
2022/10/25 05:14:34;;;;;;;;;;;;;;;12.74;90.24;100606.84;6308019;22;19957;-75
2022/10/25 05:17:38;;;;;;;;;;;;;;;12.79;89.80;100610.91;6307445;22;19914;-76
2022/10/25 05:20:43;;;;;;;;;;;;;;;13.02;87.93;100604.25;6307444;22;19980;-75
2022/10/25 05:23:47;;;;;;;;;;;;;;;13.01;88.24;100612.19;6307660;22;19918;-75
2022/10/25 05:26:50;;;;;;;;;;;;;;;12.90;88.99;100623.34;6307613;22;19918;-76
2022/10/25 05:29:54;;;;;;;;;;;;;;;12.85;89.41;100625.41;6307532;22;19952;-75
2022/10/25 05:32:57;;;;;;;;;;;;;;;12.77;89.77;100633.75;6307625;22;19922;-75
2022/10/25 05:36:02;;;;;;;;;;;;;;;12.81;90.02;100634.41;6307544;22;19952;-75
2022/10/25 05:39:05;;;;;;;;;;;;;;;12.76;90.08;100641.69;6307818;22;19913;-75
2022/10/25 05:42:08;;;;;;;;;;;;;;;12.91;89.44;100639.94;6307293;22;19956;-76
2022/10/25 05:45:37;;;;;;;;;;;;;;;12.94;89.42;100637.97;6307623;22;20037;-75
2022/10/25 05:48:40;;;;;;;;;;;;;;;12.89;89.32;100637.44;6307194;22;19917;-75
2022/10/25 05:51:43;;;;;;;;;;;;;;;12.88;90.05;100653.25;6306075;22;19952;-75
2022/10/25 05:54:46;;;;;;;;;;;;;;;12.73;91.06;100658.50;6307694;22;19914;-76
2022/10/25 05:57:50;;;;;;;;;;;;;;;12.75;91.42;100655.75;6307155;22;19922;-75
2022/10/25 06:00:57;;;;;;;;;;;;;;;12.79;91.13;100660.75;6307764;22;19968;-75
2022/10/25 06:04:00;;;;;;;;;;;;;;;12.81;90.83;100658.03;6307101;22;20242;-75
2022/10/25 06:07:03;;;;;;;;;;;;;;;12.79;91.01;100652.88;6288232;22;19960;-76
2022/10/25 06:10:07;;;;;;;;;;;;;;;12.69;91.53;100658.75;6307471;22;19925;-75
2022/10/25 06:13:10;;;;;;;;;;;;;;;12.45;92.46;100664.50;6307147;22;20074;-75
2022/10/25 06:16:15;;;;;;;;;;;;;;;12.41;92.35;100668.25;6307318;22;19974;-76
2022/10/25 06:19:18;;;;;;;;;;;;;;;12.34;93.08;100677.38;6306953;22;19971;-75
2022/10/25 06:22:21;;;;;;;;;;;;;;;12.45;92.70;100690.72;6307371;22;20250;-75
2022/10/25 06:25:24;;;;;;;;;;;;;;;12.46;92.10;100691.56;6306916;22;19921;-75
2022/10/25 06:28:28;;;;;;;;;;;;;;;12.53;91.89;100706.00;6307277;22;19918;-75
2022/10/25 06:31:32;;;;;;;;;;;;;;;12.60;91.63;100714.38;6306933;22;19914;-75
2022/10/25 06:34:35;;;;;;;;;;;;;;;12.72;91.09;100714.50;6306807;22;19964;-75
2022/10/25 06:37:39;;;;;;;;;;;;;;;12.63;90.96;100720.28;6307300;22;19994;-75
2022/10/25 06:40:42;;;;;;;;;;;;;;;12.65;91.02;100718.41;6307166;22;19913;-75
2022/10/25 06:43:45;;;;;;;;;;;;;;;12.61;91.40;100719.53;6306744;22;19956;-75
2022/10/25 06:46:49;;;;;;;;;;;;;;;12.63;91.56;100733.38;6307097;22;19963;-75
2022/10/25 06:49:52;;;;;;;;;;;;;;;12.62;91.69;100726.47;6306994;22;19948;-75
2022/10/25 06:52:56;;;;;;;;;;;;;;;12.56;91.97;100730.28;6307225;22;19937;-75
2022/10/25 06:56:00;;;;;;;;;;;;;;;12.56;92.32;100735.53;6307189;22;19949;-75
2022/10/25 06:59:05;;;;;;;;;;;;;;;12.71;91.21;100732.97;6306763;22;20019;-75
2022/10/25 07:02:08;;;;;;;;;;;;;;;12.61;91.44;100739.69;6306770;22;20019;-76
2022/10/25 07:05:12;;;;;;;;;;;;;;;12.72;91.09;100739.91;6306987;22;19950;-75
2022/10/25 07:08:15;;;;;;;;;;;;;;;12.62;91.35;100736.97;6306744;22;19964;-76
2022/10/25 07:11:18;;;;;;;;;;;;;;;12.41;92.26;100743.41;6306844;22;19917;-76
2022/10/25 07:14:22;;;;;;;;;;;;;;;12.45;92.29;100750.19;6305469;22;20338;-75
2022/10/25 07:17:26;;;;;;;;;;;;;;;12.31;92.88;100751.78;6306492;22;19929;-75
2022/10/25 07:20:29;;;;;;;;;;;;;;;12.32;92.84;100761.38;6306940;22;20368;-75
2022/10/25 07:23:33;;;;;;;;;;;;;;;12.33;93.12;100765.69;6306095;22;19913;-75
2022/10/25 07:26:36;;;;;;;;;;;;;;;12.24;93.22;100775.81;6305891;22;19930;-75
2022/10/25 07:29:40;;;;;;;;;;;;;;;12.34;93.25;100772.59;6305982;22;19913;-76
2022/10/25 07:32:44;;;;;;;;;;;;;;;12.32;93.41;100776.25;6305644;22;19976;-75
2022/10/25 07:35:48;;;;;;;;;;;;;;;12.37;93.40;100781.25;6306689;22;20345;-75
2022/10/25 07:38:51;;;;;;;;;;;;;;;12.25;94.42;100778.38;6306725;22;19971;-75
2022/10/25 07:41:54;;;;;;;;;;;;;;;12.26;94.32;100774.81;6306717;22;19978;-75
2022/10/25 07:44:58;;;;;;;;;;;;;;;12.45;92.80;100776.44;6306500;22;19976;-75
2022/10/25 07:48:01;;;;;;;;;;;;;;;12.48;93.06;100774.47;6306730;22;19914;-75
2022/10/25 07:51:06;;;;;;;;;;;;;;;12.45;93.66;100771.19;6306499;22;20292;-75
2022/10/25 07:54:09;;;;;;;;;;;;;;;12.54;93.06;100775.91;6307008;22;20374;-76
2022/10/25 07:57:16;;;;;;;;;;;;;;;12.56;93.43;100776.66;6305359;22;19913;-77
2022/10/25 08:00:19;;;;;;;;;;;;;;;12.53;94.84;100779.44;6306264;22;19913;-77
2022/10/25 08:03:22;;;;;;;;;;;;;;;12.72;94.07;100782.72;6307063;22;20284;-76
2022/10/25 08:06:26;;;;;;;;;;;;;;;12.93;92.74;100777.19;6305149;22;19953;-76
2022/10/25 08:09:29;;;;;;;;;;;;;;;13.15;90.60;100785.50;6306481;22;20339;-77
2022/10/25 08:12:32;;;;;;;;;;;;;;;13.27;90.38;100786.56;6306316;22;19953;-76
2022/10/25 08:15:36;;;;;;;;;;;;;;;13.43;87.91;100789.13;6306078;22;20368;-75
2022/10/25 08:18:41;;;;;;;;;;;;;;;13.54;87.02;100786.72;6306431;22;20009;-75
2022/10/25 08:21:45;;;;;;;;;;;;;;;13.68;84.57;100778.81;6306493;22;19995;-75
2022/10/25 08:24:48;;;;;;;;;;;;;;;13.80;83.56;100776.38;6306405;22;19953;-75
2022/10/25 08:27:52;;;;;;;;;;;;;;;13.92;83.76;100786.16;6306225;22;20002;-75
2022/10/25 08:30:55;;;;;;;;;;;;;;;13.96;83.26;100783.22;6306566;22;19938;-76
2022/10/25 08:33:59;;;;;;;;;;;;;;;14.05;83.38;100784.44;6304320;22;20021;-77
2022/10/25 08:37:02;;;;;;;;;;;;;;;14.21;83.44;100786.09;6301892;22;19917;-77
2022/10/25 08:40:07;;;;;;;;;;;;;;;14.46;81.59;100785.41;6305491;22;19972;-76
2022/10/25 08:43:10;;;;;;;;;;;;;;;14.52;80.34;100780.59;6302742;22;19956;-75
2022/10/25 08:46:20;;;;;;;;;;;;;;;14.61;79.81;100782.66;6304154;22;19914;-75
2022/10/25 08:49:27;;;;;;;;;;;;;;;14.68;79.27;100784.84;6301809;22;20349;-76
2022/10/25 08:52:33;;;;;;;;;;;;;;;14.65;78.09;100792.03;6301789;22;19960;-75
2022/10/25 08:55:41;;;;;;;;;;;;;;;14.69;78.11;100789.19;6301564;22;20251;-75
2022/10/25 08:58:59;;;;;;;;;;;;;;;14.65;77.32;100786.75;6301480;22;19971;-75
2022/10/25 09:02:03;;;;;;;;;;;;;;;14.63;77.79;100793.06;6301918;22;19937;-76
2022/10/25 09:05:19;;;;;;;;;;;;;;;14.72;77.66;100802.16;6301819;22;19922;-75
2022/10/25 09:08:34;;;;;;;;;;;;;;;14.82;77.51;100798.81;6301398;22;19922;-76
2022/10/25 09:11:47;;;;;;;;;;;;;;;14.82;77.02;100803.22;6303459;22;19937;-76
2022/10/25 09:15:16;;;;;;;;;;;;;;;14.83;75.89;100808.38;6306120;22;19976;-75
2022/10/25 09:18:22;;;;;;;;;;;;;;;14.84;76.02;100814.53;6306750;22;19937;-76
2022/10/25 09:21:31;;;;;;;;;;;;;;;14.78;76.63;100807.03;6308687;22;20030;-84
2022/10/25 09:24:51;;;;;;;;;;;;;;;15.01;77.29;100813.41;6308817;22;20069;-78
2022/10/25 09:27:59;;;;;;;;;;;;;;;15.01;75.20;100808.13;6308640;22;19972;-79
2022/10/25 09:31:03;;;;;;;;;;;;;;;15.09;75.19;100801.41;6309241;22;19918;-80
2022/10/25 09:34:08;;;;;;;;;;;;;;;15.09;74.32;100806.69;6308783;22;19936;-80
2022/10/25 09:37:34;;;;;;;;;;;;;;;15.11;74.47;100815.31;6308780;22;19953;-80
2022/10/25 09:40:57;;;;;;;;;;;;;;;15.10;74.61;100821.53;6308749;22;19918;-80
2022/10/25 09:44:05;;;;;;;;;;;;;;;15.10;74.38;100833.88;6277775;22;19960;-79
2022/10/25 09:47:09;;;;;;;;;;;;;;;15.05;73.42;100830.69;6308695;22;19913;-80
2022/10/25 09:50:15;;;;;;;;;;;;;;;15.13;73.72;100830.19;6308739;22;19972;-80
2022/10/25 09:53:18;;;;;;;;;;;;;;;15.11;73.59;100833.75;6308610;22;19913;-79
2022/10/25 09:56:22;;;;;;;;;;;;;;;15.20;73.08;100834.09;6308336;22;19968;-80
2022/10/25 09:59:27;;;;;;;;;;;;;;;15.22;73.34;100840.97;6308588;22;19913;-80
2022/10/25 10:02:30;;;;;;;;;;;;;;;15.24;72.55;100836.41;6307557;22;19989;-80
2022/10/25 10:05:35;;;;;;;;;;;;;;;15.26;71.73;100828.41;6308700;22;19991;-80
2022/10/25 10:08:40;;;;;;;;;;;;;;;15.39;71.59;100836.34;6308089;22;19968;-80
2022/10/25 10:11:45;;;;;;;;;;;;;;;15.35;70.92;100830.44;6308350;22;19929;-80
2022/10/25 10:15:00;;;;;;;;;;;;;;;15.41;70.20;100832.66;6309413;22;19918;-79
2022/10/25 10:18:21;;;;;;;;;;;;;;;15.41;69.93;100839.69;6308930;22;19914;-79
2022/10/25 10:21:25;;;;;;;;;;;;;;;15.45;69.16;100849.94;6308288;22;19953;-80
2022/10/25 10:24:36;;;;;;;;;;;;;;;15.55;69.86;100840.47;6306088;22;19917;-80
2022/10/25 10:27:40;;;;;;;;;;;;;;;15.53;69.73;100842.34;6307589;22;19917;-79
2022/10/25 10:30:51;;;;;;;;;;;;;;;15.50;69.61;100849.63;6307130;22;19959;-79
2022/10/25 10:33:54;;;;;;;;;;;;;;;15.44;69.28;100856.13;6307013;22;20368;-80
2022/10/25 10:37:04;;;;;;;;;;;;;;;15.50;68.48;100863.63;6307164;22;19990;-79
2022/10/25 10:40:09;;;;;;;;;;;;;;;15.60;68.77;100853.31;6307554;22;19914;-79
2022/10/25 10:43:33;;;;;;;;;;;;;;;15.69;68.47;100846.59;6307216;22;19975;-79
2022/10/25 10:46:42;;;;;;;;;;;;;;;15.65;67.31;100845.09;6303735;22;20006;-80
2022/10/25 10:49:46;;;;;;;;;;;;;;;15.71;66.04;100855.28;6303545;22;20445;-80
2022/10/25 10:53:02;;;;;;;;;;;;;;;15.78;66.22;100852.09;6307925;22;19956;-80
2022/10/25 10:56:06;;;;;;;;;;;;;;;15.81;66.31;100857.16;6306916;22;20388;-80
2022/10/25 10:59:24;;;;;;;;;;;;;;;15.75;67.43;100843.56;6303532;22;19918;-80
2022/10/25 11:02:28;;;;;;;;;;;;;;;15.72;67.13;100841.13;6284538;22;20304;-80
2022/10/25 11:05:34;;;;;;;;;;;;;;;15.78;67.01;100845.97;6304168;22;20330;-80
2022/10/25 11:08:37;;;;;;;;;;;;;;;15.97;67.16;100843.75;6303482;22;20286;-80
2022/10/25 11:11:41;;;;;;;;;;;;;;;15.93;66.48;100849.38;6303415;22;20339;-80
2022/10/25 11:14:44;;;;;;;;;;;;;;;15.92;66.58;100843.25;6302880;22;19921;-80
2022/10/25 11:17:53;;;;;;;;;;;;;;;15.89;66.06;100842.59;6302199;22;19967;-80
2022/10/25 11:21:20;;;;;;;;;;;;;;;15.93;65.28;100842.28;6303230;22;19992;-80
2022/10/25 11:24:53;;;;;;;;;;;;;;;15.97;65.77;100841.13;6303747;22;19914;-80
2022/10/25 11:28:06;;;;;;;;;;;;;;;15.94;66.38;100851.03;6207712;22;20401;-80
2022/10/25 11:31:11;;;;;;;;;;;;;;;15.86;67.01;100859.50;6304843;22;19918;-79
2022/10/25 11:34:27;;;;;;;;;;;;;;;15.88;66.77;100857.56;6303359;22;19917;-80
2022/10/25 11:37:35;;;;;;;;;;;;;;;16.04;66.50;100845.00;6302558;22;19976;-80
2022/10/25 11:40:40;;;;;;;;;;;;;;;16.10;66.92;100845.53;6302738;22;19963;-79
2022/10/25 11:43:49;;;;;;;;;;;;;;;16.28;66.04;100839.81;6304053;22;20280;-79
2022/10/25 11:47:02;;;;;;;;;;;;;;;16.36;65.19;100841.88;6303766;22;19975;-79
2022/10/25 11:50:27;;;;;;;;;;;;;;;16.33;64.13;100842.09;6303397;22;19977;-79
2022/10/25 11:53:39;;;;;;;;;;;;;;;16.41;64.88;100844.22;6302981;22;19964;-79
2022/10/25 11:56:59;;;;;;;;;;;;;;;16.57;64.56;100838.69;6302916;22;20507;-79
2022/10/25 12:00:03;;;;;;;;;;;;;;;16.41;63.10;100834.50;6303032;22;20025;-79
2022/10/25 12:03:31;;;;;;;;;;;;;;;16.62;63.58;100836.53;6302233;22;19986;-79
2022/10/25 12:06:35;;;;;;;;;;;;;;;16.50;63.01;100844.41;6302690;22;19960;-79
2022/10/25 12:09:40;;;;;;;;;;;;;;;16.70;62.48;100837.66;6307540;22;19922;-79
2022/10/25 12:12:48;;;;;;;;;;;;;;;16.99;62.53;100833.88;6307223;22;20325;-79
2022/10/25 12:15:53;;;;;;;;;;;;;;;16.90;62.21;100836.22;6307342;22;20380;-79
2022/10/25 12:19:03;;;;;;;;;;;;;;;16.46;62.48;100831.50;6303463;22;19945;-79
2022/10/25 12:22:11;;;;;;;;;;;;;;;16.57;62.70;100838.69;6308355;22;19913;-80
2022/10/25 12:25:18;;;;;;;;;;;;;;;16.73;62.60;100837.44;6306947;22;19914;-79
2022/10/25 12:28:40;;;;;;;;;;;;;;;16.79;62.29;100838.81;6306687;22;19917;-80
2022/10/25 12:31:49;;;;;;;;;;;;;;;16.87;61.78;100825.88;6306193;22;19933;-80
2022/10/25 12:34:53;;;;;;;;;;;;;;;16.83;61.33;100829.72;6304785;22;19953;-80
2022/10/25 12:38:20;;;;;;;;;;;;;;;16.80;61.69;100823.81;6302285;22;19934;-80
2022/10/25 12:41:26;;;;;;;;;;;;;;;16.89;61.35;100826.63;6302750;22;20353;-79
2022/10/25 12:44:39;;;;;;;;;;;;;;;16.91;61.86;100819.44;6310987;22;19987;-80
2022/10/25 12:47:53;;;;;;;;;;;;;;;16.85;60.88;100821.69;6303921;22;19922;-80
2022/10/25 12:51:05;;;;;;;;;;;;;;;17.05;61.93;100817.56;6304365;22;19996;-79
2022/10/25 12:54:24;;;;;;;;;;;;;;;17.12;59.90;100819.63;6308149;22;19922;-80
2022/10/25 12:57:40;;;;;;;;;;;;;;;17.19;58.55;100820.84;6307234;22;19957;-80
2022/10/25 13:01:02;;;;;;;;;;;;;;;16.95;58.46;100817.41;6307135;22;19918;-80
2022/10/25 13:04:24;;;;;;;;;;;;;;;16.87;57.15;100810.03;6306740;22;19965;-79
2022/10/25 13:07:30;;;;;;;;;;;;;;;16.95;58.22;100804.19;6306809;22;19925;-79
2022/10/25 13:10:40;;;;;;;;;;;;;;;16.95;58.76;100789.19;6305759;22;20527;-79
2022/10/25 13:13:52;;;;;;;;;;;;;;;17.00;59.27;100788.84;6307115;22;20002;-79
2022/10/25 13:17:19;;;;;;;;;;;;;;;17.07;58.93;100794.50;6306528;22;20375;-79
2022/10/25 13:20:35;;;;;;;;;;;;;;;16.97;56.91;100794.34;6306422;22;20413;-80
2022/10/25 13:23:41;;;;;;;;;;;;;;;17.35;56.31;100793.25;6309848;22;19914;-80
2022/10/25 13:27:03;;;;;;;;;;;;;;;17.25;55.67;100794.91;6304877;22;19917;-80
2022/10/25 13:30:07;;;;;;;;;;;;;;;17.30;56.05;100798.06;6307906;22;20226;-80
2022/10/25 13:33:17;;;;;;;;;;;;;;;17.31;56.57;100794.44;6308486;22;19914;-80
2022/10/25 13:36:40;;;;;;;;;;;;;;;17.24;56.83;100791.44;6308836;22;20242;-80
2022/10/25 13:39:44;;;;;;;;;;;;;;;17.53;56.30;100801.59;6308686;22;19963;-80
2022/10/25 13:42:55;;;;;;;;;;;;;;;17.56;56.52;100786.31;6308699;22;19958;-80
2022/10/25 13:45:59;;;;;;;;;;;;;;;17.39;58.17;100798.22;6308343;22;20328;-79
2022/10/25 13:49:17;;;;;;;;;;;;;;;17.13;56.61;100789.63;6308491;22;20338;-79
2022/10/25 13:52:27;;;;;;;;;;;;;;;16.87;56.70;100796.84;6308275;22;19914;-79
2022/10/25 13:55:36;;;;;;;;;;;;;;;16.69;57.15;100796.38;6306835;22;20368;-78
2022/10/25 13:58:41;;;;;;;;;;;;;;;16.69;58.15;100795.53;6307935;22;19952;-79
2022/10/25 14:01:44;;;;;;;;;;;;;;;16.67;58.28;100782.44;6307258;22;19964;-79
2022/10/25 14:04:48;;;;;;;;;;;;;;;16.62;58.34;100783.72;6307575;22;19913;-78
2022/10/25 14:07:54;;;;;;;;;;;;;;;16.68;58.14;100785.91;6308099;22;19918;-79
2022/10/25 14:11:09;;;;;;;;;;;;;;;16.67;58.87;100778.97;6307917;22;20002;-78
2022/10/25 14:14:12;;;;;;;;;;;;;;;16.56;60.20;100776.25;6307613;22;19918;-79
2022/10/25 14:17:34;;;;;;;;;;;;;;;16.58;58.68;100772.56;6307813;22;19913;-79
2022/10/25 14:20:38;;;;;;;;;;;;;;;16.58;58.82;100766.44;6307871;22;19918;-79
2022/10/25 14:23:42;;;;;;;;;;;;;;;16.58;59.21;100766.44;6309015;22;19968;-79
2022/10/25 14:26:53;;;;;;;;;;;;;;;16.52;59.07;100760.63;6308311;22;19994;-79
2022/10/25 14:30:16;;;;;;;;;;;;;;;16.58;60.24;100762.00;6309158;22;19921;-79
2022/10/25 14:33:32;;;;;;;;;;;;;;;16.58;59.94;100771.72;6308414;22;19960;-80
2022/10/25 14:36:35;;;;;;;;;;;;;;;16.48;60.33;100772.38;6303323;22;19951;-80
2022/10/25 14:39:49;;;;;;;;;;;;;;;16.39;62.18;100773.06;6300130;22;20345;-80
2022/10/25 14:43:14;;;;;;;;;;;;;;;16.18;64.81;100775.47;6302301;22;19964;-80
2022/10/25 14:46:20;;;;;;;;;;;;;;;16.03;64.33;100777.38;6302196;22;19918;-80
2022/10/25 14:49:25;;;;;;;;;;;;;;;15.96;65.77;100770.88;6303014;22;19937;-79
2022/10/25 14:52:29;;;;;;;;;;;;;;;15.77;68.33;100776.59;6302320;22;19917;-80
2022/10/25 14:55:33;;;;;;;;;;;;;;;15.77;68.20;100775.75;6302570;22;20297;-80
2022/10/25 14:58:42;;;;;;;;;;;;;;;15.73;69.47;100776.91;6301971;22;19961;-80
2022/10/25 15:01:59;;;;;;;;;;;;;;;15.68;70.29;100776.41;6300726;22;20124;-80
2022/10/25 15:05:03;;;;;;;;;;;;;;;15.58;70.82;100776.16;6283641;22;19917;-80
2022/10/25 15:08:15;;;;;;;;;;;;;;;15.58;71.70;100782.28;6301427;22;19925;-80
2022/10/25 15:11:19;;;;;;;;;;;;;;;15.69;71.30;100770.16;6252505;22;20310;-80
2022/10/25 15:14:23;;;;;;;;;;;;;;;15.54;72.39;100770.25;6251852;22;19957;-80
2022/10/25 15:17:29;;;;;;;;;;;;;;;15.48;72.24;100762.78;6270715;22;19957;-80
2022/10/25 15:20:33;;;;;;;;;;;;;;;15.45;74.84;100770.06;6271452;22;19918;-80
2022/10/25 15:23:37;;;;;;;;;;;;;;;15.52;73.71;100766.88;6247501;22;20867;-80
2022/10/25 15:26:51;;;;;;;;;;;;;;;15.57;73.02;100775.31;6252026;22;19961;-80
2022/10/25 15:29:55;;;;;;;;;;;;;;;15.41;74.60;100764.16;6270898;22;20028;-80
2022/10/25 15:33:00;;;;;;;;;;;;;;;15.42;75.44;100771.09;6270970;22;19938;-80
2022/10/25 15:36:07;;;;;;;;;;;;;;;15.41;75.20;100765.91;6273825;22;19966;-80